sensor_id;sensor_type;location;lat;lon;timestamp;P1;durP1;ratioP1;P2;durP2;ratioP2
22030;SDS011;11179;52.106;21.024;2023-06-14T00:01:32;14.17;;;7.93;;
22030;SDS011;11179;52.106;21.024;2023-06-14T00:03:59;12.70;;;7.20;;
22030;SDS011;11179;52.106;21.024;2023-06-14T00:06:26;13.23;;;7.23;;
22030;SDS011;11179;52.106;21.024;2023-06-14T00:08:51;18.97;;;7.87;;
22030;SDS011;11179;52.106;21.024;2023-06-14T00:11:16;21.80;;;7.63;;
22030;SDS011;11179;52.106;21.024;2023-06-14T00:13:42;12.53;;;7.70;;
22030;SDS011;11179;52.106;21.024;2023-06-14T00:16:08;12.87;;;7.93;;
22030;SDS011;11179;52.106;21.024;2023-06-14T00:18:33;15.13;;;7.47;;
22030;SDS011;11179;52.106;21.024;2023-06-14T00:20:59;18.43;;;6.83;;
22030;SDS011;11179;52.106;21.024;2023-06-14T00:23:24;17.70;;;8.20;;
22030;SDS011;11179;52.106;21.024;2023-06-14T00:25:50;12.97;;;7.07;;
22030;SDS011;11179;52.106;21.024;2023-06-14T00:28:15;12.73;;;8.17;;
22030;SDS011;11179;52.106;21.024;2023-06-14T00:30:41;14.40;;;7.83;;
22030;SDS011;11179;52.106;21.024;2023-06-14T00:33:06;14.73;;;7.53;;
22030;SDS011;11179;52.106;21.024;2023-06-14T00:35:31;14.30;;;7.23;;
22030;SDS011;11179;52.106;21.024;2023-06-14T00:37:57;14.13;;;7.63;;
22030;SDS011;11179;52.106;21.024;2023-06-14T00:40:22;15.20;;;7.60;;
22030;SDS011;11179;52.106;21.024;2023-06-14T00:42:48;12.80;;;7.27;;
22030;SDS011;11179;52.106;21.024;2023-06-14T00:45:13;13.00;;;7.70;;
22030;SDS011;11179;52.106;21.024;2023-06-14T00:47:38;15.20;;;7.70;;
22030;SDS011;11179;52.106;21.024;2023-06-14T00:50:07;15.97;;;8.20;;
22030;SDS011;11179;52.106;21.024;2023-06-14T00:52:34;16.87;;;9.20;;
22030;SDS011;11179;52.106;21.024;2023-06-14T00:54:59;27.63;;;9.37;;
22030;SDS011;11179;52.106;21.024;2023-06-14T00:57:26;19.40;;;8.77;;
22030;SDS011;11179;52.106;21.024;2023-06-14T00:59:51;14.73;;;7.77;;
22030;SDS011;11179;52.106;21.024;2023-06-14T01:02:17;16.27;;;9.53;;
22030;SDS011;11179;52.106;21.024;2023-06-14T01:04:46;17.27;;;8.70;;
22030;SDS011;11179;52.106;21.024;2023-06-14T01:10:19;14.30;;;8.33;;
22030;SDS011;11179;52.106;21.024;2023-06-14T01:12:50;16.93;;;8.60;;
22030;SDS011;11179;52.106;21.024;2023-06-14T01:15:21;20.73;;;9.13;;
22030;SDS011;11179;52.106;21.024;2023-06-14T01:17:49;17.70;;;8.63;;
22030;SDS011;11179;52.106;21.024;2023-06-14T01:20:16;16.37;;;9.40;;
22030;SDS011;11179;52.106;21.024;2023-06-14T01:22:54;15.33;;;9.47;;
22030;SDS011;11179;52.106;21.024;2023-06-14T01:25:20;20.47;;;11.17;;
22030;SDS011;11179;52.106;21.024;2023-06-14T01:27:51;16.07;;;9.50;;
22030;SDS011;11179;52.106;21.024;2023-06-14T01:30:18;15.63;;;9.37;;
22030;SDS011;11179;52.106;21.024;2023-06-14T01:32:46;15.10;;;8.83;;
22030;SDS011;11179;52.106;21.024;2023-06-14T01:35:12;23.03;;;9.53;;
22030;SDS011;11179;52.106;21.024;2023-06-14T01:37:37;17.60;;;9.73;;
22030;SDS011;11179;52.106;21.024;2023-06-14T01:40:06;14.70;;;8.77;;
22030;SDS011;11179;52.106;21.024;2023-06-14T01:42:34;17.67;;;8.90;;
22030;SDS011;11179;52.106;21.024;2023-06-14T01:45:03;21.03;;;9.03;;
22030;SDS011;11179;52.106;21.024;2023-06-14T01:47:30;15.57;;;8.93;;
22030;SDS011;11179;52.106;21.024;2023-06-14T01:49:56;16.37;;;8.90;;
22030;SDS011;11179;52.106;21.024;2023-06-14T01:52:22;18.00;;;8.57;;
22030;SDS011;11179;52.106;21.024;2023-06-14T01:54:49;17.20;;;9.37;;
22030;SDS011;11179;52.106;21.024;2023-06-14T01:57:15;17.60;;;9.60;;
22030;SDS011;11179;52.106;21.024;2023-06-14T01:59:40;16.43;;;9.73;;
22030;SDS011;11179;52.106;21.024;2023-06-14T02:02:05;17.63;;;9.33;;
22030;SDS011;11179;52.106;21.024;2023-06-14T02:04:31;16.10;;;9.50;;
22030;SDS011;11179;52.106;21.024;2023-06-14T02:06:56;17.87;;;10.00;;
22030;SDS011;11179;52.106;21.024;2023-06-14T02:09:21;17.03;;;9.87;;
22030;SDS011;11179;52.106;21.024;2023-06-14T02:11:46;23.33;;;10.10;;
22030;SDS011;11179;52.106;21.024;2023-06-14T02:14:12;16.73;;;9.97;;
22030;SDS011;11179;52.106;21.024;2023-06-14T02:16:37;19.77;;;10.47;;
22030;SDS011;11179;52.106;21.024;2023-06-14T02:19:04;24.90;;;9.77;;
22030;SDS011;11179;52.106;21.024;2023-06-14T02:21:29;17.40;;;9.60;;
22030;SDS011;11179;52.106;21.024;2023-06-14T02:23:55;17.47;;;10.13;;
22030;SDS011;11179;52.106;21.024;2023-06-14T02:26:20;17.10;;;10.00;;
22030;SDS011;11179;52.106;21.024;2023-06-14T02:28:47;21.30;;;10.47;;
22030;SDS011;11179;52.106;21.024;2023-06-14T02:31:13;17.30;;;10.07;;
22030;SDS011;11179;52.106;21.024;2023-06-14T02:33:38;15.30;;;9.40;;
22030;SDS011;11179;52.106;21.024;2023-06-14T02:36:04;19.07;;;9.93;;
22030;SDS011;11179;52.106;21.024;2023-06-14T02:38:30;19.03;;;10.43;;
22030;SDS011;11179;52.106;21.024;2023-06-14T02:40:55;19.70;;;9.57;;
22030;SDS011;11179;52.106;21.024;2023-06-14T02:43:21;18.03;;;9.23;;
22030;SDS011;11179;52.106;21.024;2023-06-14T02:45:46;20.87;;;9.23;;
22030;SDS011;11179;52.106;21.024;2023-06-14T02:48:11;23.37;;;9.47;;
22030;SDS011;11179;52.106;21.024;2023-06-14T02:50:36;19.30;;;9.30;;
22030;SDS011;11179;52.106;21.024;2023-06-14T02:53:02;16.17;;;9.17;;
22030;SDS011;11179;52.106;21.024;2023-06-14T02:55:27;18.37;;;9.00;;
22030;SDS011;11179;52.106;21.024;2023-06-14T02:57:53;16.03;;;8.83;;
22030;SDS011;11179;52.106;21.024;2023-06-14T03:00:18;17.43;;;9.93;;
22030;SDS011;11179;52.106;21.024;2023-06-14T03:02:44;16.70;;;9.30;;
22030;SDS011;11179;52.106;21.024;2023-06-14T03:05:10;14.80;;;9.03;;
22030;SDS011;11179;52.106;21.024;2023-06-14T03:07:36;15.63;;;8.30;;
22030;SDS011;11179;52.106;21.024;2023-06-14T03:10:06;15.60;;;9.17;;
22030;SDS011;11179;52.106;21.024;2023-06-14T03:12:33;21.33;;;9.10;;
22030;SDS011;11179;52.106;21.024;2023-06-14T03:14:58;25.63;;;8.80;;
22030;SDS011;11179;52.106;21.024;2023-06-14T03:17:26;18.83;;;9.43;;
22030;SDS011;11179;52.106;21.024;2023-06-14T03:19:54;20.30;;;8.83;;
22030;SDS011;11179;52.106;21.024;2023-06-14T03:22:20;14.30;;;8.87;;
22030;SDS011;11179;52.106;21.024;2023-06-14T03:24:47;20.57;;;9.73;;
22030;SDS011;11179;52.106;21.024;2023-06-14T03:27:13;16.70;;;8.83;;
22030;SDS011;11179;52.106;21.024;2023-06-14T03:29:39;17.97;;;9.17;;
22030;SDS011;11179;52.106;21.024;2023-06-14T03:32:05;22.33;;;8.50;;
22030;SDS011;11179;52.106;21.024;2023-06-14T03:34:30;19.80;;;8.90;;
22030;SDS011;11179;52.106;21.024;2023-06-14T03:36:56;15.97;;;9.30;;
22030;SDS011;11179;52.106;21.024;2023-06-14T03:39:21;15.60;;;9.23;;
22030;SDS011;11179;52.106;21.024;2023-06-14T03:41:46;15.97;;;8.67;;
22030;SDS011;11179;52.106;21.024;2023-06-14T03:44:14;16.03;;;9.27;;
22030;SDS011;11179;52.106;21.024;2023-06-14T03:46:41;17.23;;;8.87;;
22030;SDS011;11179;52.106;21.024;2023-06-14T03:49:10;17.00;;;9.53;;
22030;SDS011;11179;52.106;21.024;2023-06-14T03:51:36;14.67;;;8.73;;
22030;SDS011;11179;52.106;21.024;2023-06-14T03:54:01;14.93;;;9.30;;
22030;SDS011;11179;52.106;21.024;2023-06-14T03:56:27;17.93;;;8.07;;
22030;SDS011;11179;52.106;21.024;2023-06-14T03:58:52;18.43;;;9.30;;
22030;SDS011;11179;52.106;21.024;2023-06-14T04:01:17;14.40;;;8.70;;
22030;SDS011;11179;52.106;21.024;2023-06-14T04:03:43;14.53;;;9.23;;
22030;SDS011;11179;52.106;21.024;2023-06-14T04:06:08;14.83;;;8.83;;
22030;SDS011;11179;52.106;21.024;2023-06-14T04:08:34;16.60;;;8.97;;
22030;SDS011;11179;52.106;21.024;2023-06-14T04:11:00;14.97;;;8.77;;
22030;SDS011;11179;52.106;21.024;2023-06-14T04:13:25;17.10;;;8.30;;
22030;SDS011;11179;52.106;21.024;2023-06-14T04:15:51;15.60;;;8.20;;
22030;SDS011;11179;52.106;21.024;2023-06-14T04:18:16;15.83;;;8.90;;
22030;SDS011;11179;52.106;21.024;2023-06-14T04:20:43;14.50;;;7.93;;
22030;SDS011;11179;52.106;21.024;2023-06-14T04:23:16;16.67;;;8.50;;
22030;SDS011;11179;52.106;21.024;2023-06-14T04:25:45;14.93;;;8.70;;
22030;SDS011;11179;52.106;21.024;2023-06-14T04:28:11;13.80;;;8.57;;
22030;SDS011;11179;52.106;21.024;2023-06-14T04:30:37;17.93;;;9.10;;
22030;SDS011;11179;52.106;21.024;2023-06-14T04:33:03;16.20;;;8.67;;
22030;SDS011;11179;52.106;21.024;2023-06-14T04:35:30;17.23;;;8.50;;
22030;SDS011;11179;52.106;21.024;2023-06-14T04:38:04;16.30;;;8.80;;
22030;SDS011;11179;52.106;21.024;2023-06-14T04:40:33;16.67;;;9.00;;
22030;SDS011;11179;52.106;21.024;2023-06-14T04:42:58;15.20;;;8.70;;
22030;SDS011;11179;52.106;21.024;2023-06-14T04:45:24;14.90;;;8.60;;
22030;SDS011;11179;52.106;21.024;2023-06-14T04:47:56;14.80;;;8.97;;
22030;SDS011;11179;52.106;21.024;2023-06-14T04:50:22;16.13;;;8.37;;
22030;SDS011;11179;52.106;21.024;2023-06-14T04:52:47;12.90;;;8.20;;
22030;SDS011;11179;52.106;21.024;2023-06-14T04:55:16;16.00;;;7.90;;
22030;SDS011;11179;52.106;21.024;2023-06-14T04:57:41;17.57;;;8.50;;
22030;SDS011;11179;52.106;21.024;2023-06-14T05:00:07;16.00;;;8.73;;
22030;SDS011;11179;52.106;21.024;2023-06-14T05:02:34;15.67;;;8.80;;
22030;SDS011;11179;52.106;21.024;2023-06-14T05:05:00;16.60;;;7.83;;
22030;SDS011;11179;52.106;21.024;2023-06-14T05:07:26;16.00;;;9.37;;
22030;SDS011;11179;52.106;21.024;2023-06-14T05:09:52;15.43;;;8.50;;
22030;SDS011;11179;52.106;21.024;2023-06-14T05:12:17;16.43;;;9.40;;
22030;SDS011;11179;52.106;21.024;2023-06-14T05:14:43;16.10;;;8.57;;
22030;SDS011;11179;52.106;21.024;2023-06-14T05:17:08;16.30;;;7.37;;
22030;SDS011;11179;52.106;21.024;2023-06-14T05:19:34;14.03;;;8.40;;
22030;SDS011;11179;52.106;21.024;2023-06-14T05:21:59;17.17;;;7.83;;
22030;SDS011;11179;52.106;21.024;2023-06-14T05:24:25;14.73;;;8.13;;
22030;SDS011;11179;52.106;21.024;2023-06-14T05:26:50;22.97;;;8.00;;
22030;SDS011;11179;52.106;21.024;2023-06-14T05:29:16;11.57;;;6.87;;
22030;SDS011;11179;52.106;21.024;2023-06-14T05:31:41;13.03;;;8.07;;
22030;SDS011;11179;52.106;21.024;2023-06-14T05:34:06;16.43;;;8.30;;
22030;SDS011;11179;52.106;21.024;2023-06-14T05:36:32;16.37;;;7.63;;
22030;SDS011;11179;52.106;21.024;2023-06-14T05:38:57;14.67;;;7.40;;
22030;SDS011;11179;52.106;21.024;2023-06-14T05:41:24;12.90;;;7.97;;
22030;SDS011;11179;52.106;21.024;2023-06-14T05:43:50;13.53;;;7.50;;
22030;SDS011;11179;52.106;21.024;2023-06-14T05:46:16;13.63;;;7.73;;
22030;SDS011;11179;52.106;21.024;2023-06-14T05:48:46;18.60;;;9.03;;
22030;SDS011;11179;52.106;21.024;2023-06-14T05:51:12;15.30;;;7.73;;
22030;SDS011;11179;52.106;21.024;2023-06-14T05:53:37;13.20;;;8.27;;
22030;SDS011;11179;52.106;21.024;2023-06-14T05:56:03;15.70;;;8.17;;
22030;SDS011;11179;52.106;21.024;2023-06-14T05:58:28;11.53;;;7.40;;
22030;SDS011;11179;52.106;21.024;2023-06-14T06:00:53;14.10;;;7.57;;
22030;SDS011;11179;52.106;21.024;2023-06-14T06:03:19;19.73;;;8.30;;
22030;SDS011;11179;52.106;21.024;2023-06-14T06:05:44;16.10;;;8.80;;
22030;SDS011;11179;52.106;21.024;2023-06-14T06:08:09;13.83;;;8.30;;
22030;SDS011;11179;52.106;21.024;2023-06-14T06:10:35;18.03;;;8.27;;
22030;SDS011;11179;52.106;21.024;2023-06-14T06:13:00;11.97;;;7.03;;
22030;SDS011;11179;52.106;21.024;2023-06-14T06:15:26;17.50;;;8.10;;
22030;SDS011;11179;52.106;21.024;2023-06-14T06:17:51;14.33;;;7.50;;
22030;SDS011;11179;52.106;21.024;2023-06-14T06:20:16;20.43;;;8.00;;
22030;SDS011;11179;52.106;21.024;2023-06-14T06:22:42;15.30;;;8.10;;
22030;SDS011;11179;52.106;21.024;2023-06-14T06:25:07;17.73;;;7.87;;
22030;SDS011;11179;52.106;21.024;2023-06-14T06:27:33;15.30;;;7.90;;
22030;SDS011;11179;52.106;21.024;2023-06-14T06:30:00;16.00;;;7.43;;
22030;SDS011;11179;52.106;21.024;2023-06-14T06:32:26;12.77;;;6.53;;
22030;SDS011;11179;52.106;21.024;2023-06-14T06:34:52;12.10;;;7.07;;
22030;SDS011;11179;52.106;21.024;2023-06-14T06:37:17;14.83;;;6.53;;
22030;SDS011;11179;52.106;21.024;2023-06-14T06:39:42;12.30;;;7.80;;
22030;SDS011;11179;52.106;21.024;2023-06-14T06:42:08;12.23;;;7.17;;
22030;SDS011;11179;52.106;21.024;2023-06-14T06:44:33;12.00;;;7.67;;
22030;SDS011;11179;52.106;21.024;2023-06-14T06:46:59;13.23;;;7.20;;
22030;SDS011;11179;52.106;21.024;2023-06-14T06:49:24;15.27;;;6.70;;
22030;SDS011;11179;52.106;21.024;2023-06-14T06:51:59;13.20;;;6.37;;
22030;SDS011;11179;52.106;21.024;2023-06-14T06:54:28;11.57;;;6.40;;
22030;SDS011;11179;52.106;21.024;2023-06-14T06:56:54;13.10;;;6.93;;
22030;SDS011;11179;52.106;21.024;2023-06-14T06:59:20;16.90;;;6.23;;
22030;SDS011;11179;52.106;21.024;2023-06-14T07:01:45;12.93;;;5.70;;
22030;SDS011;11179;52.106;21.024;2023-06-14T07:04:11;15.40;;;6.30;;
22030;SDS011;11179;52.106;21.024;2023-06-14T07:06:37;11.83;;;5.93;;
22030;SDS011;11179;52.106;21.024;2023-06-14T07:09:03;11.03;;;6.00;;
22030;SDS011;11179;52.106;21.024;2023-06-14T07:11:30;11.80;;;6.47;;
22030;SDS011;11179;52.106;21.024;2023-06-14T07:13:55;9.43;;;5.40;;
22030;SDS011;11179;52.106;21.024;2023-06-14T07:16:21;12.53;;;7.07;;
22030;SDS011;11179;52.106;21.024;2023-06-14T07:18:46;10.87;;;6.70;;
22030;SDS011;11179;52.106;21.024;2023-06-14T07:21:12;11.87;;;6.27;;
22030;SDS011;11179;52.106;21.024;2023-06-14T07:23:37;11.13;;;6.00;;
22030;SDS011;11179;52.106;21.024;2023-06-14T07:26:02;13.60;;;6.30;;
22030;SDS011;11179;52.106;21.024;2023-06-14T07:28:28;17.67;;;7.10;;
22030;SDS011;11179;52.106;21.024;2023-06-14T07:30:53;13.00;;;6.87;;
22030;SDS011;11179;52.106;21.024;2023-06-14T07:33:18;23.53;;;6.63;;
22030;SDS011;11179;52.106;21.024;2023-06-14T07:35:44;13.30;;;7.60;;
22030;SDS011;11179;52.106;21.024;2023-06-14T07:38:10;15.70;;;7.17;;
22030;SDS011;11179;52.106;21.024;2023-06-14T07:40:35;12.50;;;6.70;;
22030;SDS011;11179;52.106;21.024;2023-06-14T07:43:01;14.50;;;7.63;;
22030;SDS011;11179;52.106;21.024;2023-06-14T07:45:27;18.23;;;7.90;;
22030;SDS011;11179;52.106;21.024;2023-06-14T07:47:52;13.43;;;7.07;;
22030;SDS011;11179;52.106;21.024;2023-06-14T07:50:17;12.73;;;7.30;;
22030;SDS011;11179;52.106;21.024;2023-06-14T07:52:43;13.30;;;7.77;;
22030;SDS011;11179;52.106;21.024;2023-06-14T07:55:09;16.40;;;7.33;;
22030;SDS011;11179;52.106;21.024;2023-06-14T07:57:34;15.83;;;6.70;;
22030;SDS011;11179;52.106;21.024;2023-06-14T08:00:00;11.20;;;6.37;;
22030;SDS011;11179;52.106;21.024;2023-06-14T08:02:25;11.43;;;6.40;;
22030;SDS011;11179;52.106;21.024;2023-06-14T08:04:51;11.60;;;5.87;;
22030;SDS011;11179;52.106;21.024;2023-06-14T08:07:17;14.63;;;6.63;;
22030;SDS011;11179;52.106;21.024;2023-06-14T08:09:42;14.60;;;6.97;;
22030;SDS011;11179;52.106;21.024;2023-06-14T08:12:08;19.13;;;7.00;;
22030;SDS011;11179;52.106;21.024;2023-06-14T08:14:34;11.33;;;5.60;;
22030;SDS011;11179;52.106;21.024;2023-06-14T08:17:00;10.43;;;6.10;;
22030;SDS011;11179;52.106;21.024;2023-06-14T08:19:26;12.63;;;6.60;;
22030;SDS011;11179;52.106;21.024;2023-06-14T08:21:51;16.40;;;6.80;;
22030;SDS011;11179;52.106;21.024;2023-06-14T08:24:16;14.90;;;6.57;;
22030;SDS011;11179;52.106;21.024;2023-06-14T08:26:42;11.50;;;5.80;;
22030;SDS011;11179;52.106;21.024;2023-06-14T08:29:07;12.50;;;5.87;;
22030;SDS011;11179;52.106;21.024;2023-06-14T08:31:33;12.23;;;5.83;;
22030;SDS011;11179;52.106;21.024;2023-06-14T08:33:59;9.37;;;5.80;;
22030;SDS011;11179;52.106;21.024;2023-06-14T08:36:24;10.63;;;5.70;;
22030;SDS011;11179;52.106;21.024;2023-06-14T08:38:50;11.67;;;6.10;;
22030;SDS011;11179;52.106;21.024;2023-06-14T08:41:20;12.23;;;5.67;;
22030;SDS011;11179;52.106;21.024;2023-06-14T08:43:47;13.30;;;5.50;;
22030;SDS011;11179;52.106;21.024;2023-06-14T08:46:12;19.00;;;6.37;;
22030;SDS011;11179;52.106;21.024;2023-06-14T08:48:41;12.27;;;6.10;;
22030;SDS011;11179;52.106;21.024;2023-06-14T08:51:08;10.03;;;5.67;;
22030;SDS011;11179;52.106;21.024;2023-06-14T08:53:35;11.00;;;5.00;;
22030;SDS011;11179;52.106;21.024;2023-06-14T08:56:06;12.30;;;6.10;;
22030;SDS011;11179;52.106;21.024;2023-06-14T08:58:39;14.60;;;5.97;;
22030;SDS011;11179;52.106;21.024;2023-06-14T09:01:10;8.67;;;5.43;;
22030;SDS011;11179;52.106;21.024;2023-06-14T09:03:40;12.50;;;5.80;;
22030;SDS011;11179;52.106;21.024;2023-06-14T09:06:06;13.37;;;5.50;;
22030;SDS011;11179;52.106;21.024;2023-06-14T09:08:34;9.43;;;5.20;;
22030;SDS011;11179;52.106;21.024;2023-06-14T09:11:01;10.27;;;5.67;;
22030;SDS011;11179;52.106;21.024;2023-06-14T09:13:26;10.27;;;6.37;;
22030;SDS011;11179;52.106;21.024;2023-06-14T09:15:52;17.60;;;5.80;;
22030;SDS011;11179;52.106;21.024;2023-06-14T09:18:18;11.77;;;6.20;;
22030;SDS011;11179;52.106;21.024;2023-06-14T09:20:45;13.40;;;6.30;;
22030;SDS011;11179;52.106;21.024;2023-06-14T09:23:12;13.40;;;6.13;;
22030;SDS011;11179;52.106;21.024;2023-06-14T09:25:41;15.70;;;5.20;;
22030;SDS011;11179;52.106;21.024;2023-06-14T09:28:08;18.87;;;6.10;;
22030;SDS011;11179;52.106;21.024;2023-06-14T09:30:33;11.43;;;4.83;;
22030;SDS011;11179;52.106;21.024;2023-06-14T09:32:59;10.10;;;6.37;;
22030;SDS011;11179;52.106;21.024;2023-06-14T09:35:25;11.13;;;5.73;;
22030;SDS011;11179;52.106;21.024;2023-06-14T09:37:53;13.30;;;6.50;;
22030;SDS011;11179;52.106;21.024;2023-06-14T09:40:20;11.97;;;5.70;;
22030;SDS011;11179;52.106;21.024;2023-06-14T09:42:46;11.00;;;5.63;;
22030;SDS011;11179;52.106;21.024;2023-06-14T09:45:12;11.40;;;5.77;;
22030;SDS011;11179;52.106;21.024;2023-06-14T09:47:38;15.43;;;5.03;;
22030;SDS011;11179;52.106;21.024;2023-06-14T09:50:04;14.23;;;6.60;;
22030;SDS011;11179;52.106;21.024;2023-06-14T09:52:30;13.50;;;6.03;;
22030;SDS011;11179;52.106;21.024;2023-06-14T09:54:56;12.57;;;5.40;;
22030;SDS011;11179;52.106;21.024;2023-06-14T09:57:24;15.00;;;5.90;;
22030;SDS011;11179;52.106;21.024;2023-06-14T09:59:56;14.60;;;5.97;;
22030;SDS011;11179;52.106;21.024;2023-06-14T10:02:36;11.50;;;6.03;;
22030;SDS011;11179;52.106;21.024;2023-06-14T10:05:05;10.17;;;5.50;;
22030;SDS011;11179;52.106;21.024;2023-06-14T10:08:34;12.23;;;6.10;;
22030;SDS011;11179;52.106;21.024;2023-06-14T10:10:35;13.60;;;5.40;;
22030;SDS011;11179;52.106;21.024;2023-06-14T10:13:03;9.87;;;4.90;;
22030;SDS011;11179;52.106;21.024;2023-06-14T10:20:42;9.60;;;5.53;;
22030;SDS011;11179;52.106;21.024;2023-06-14T10:23:18;8.33;;;4.47;;
22030;SDS011;11179;52.106;21.024;2023-06-14T10:25:49;11.03;;;5.60;;
22030;SDS011;11179;52.106;21.024;2023-06-14T10:28:19;8.70;;;4.70;;
22030;SDS011;11179;52.106;21.024;2023-06-14T10:31:03;15.17;;;5.27;;
22030;SDS011;11179;52.106;21.024;2023-06-14T10:33:29;8.90;;;4.53;;
22030;SDS011;11179;52.106;21.024;2023-06-14T10:38:59;11.20;;;4.60;;
22030;SDS011;11179;52.106;21.024;2023-06-14T10:41:31;15.47;;;4.57;;
22030;SDS011;11179;52.106;21.024;2023-06-14T10:46:38;10.80;;;4.00;;
22030;SDS011;11179;52.106;21.024;2023-06-14T10:49:04;10.73;;;4.50;;
22030;SDS011;11179;52.106;21.024;2023-06-14T10:51:37;9.13;;;4.87;;
22030;SDS011;11179;52.106;21.024;2023-06-14T10:54:11;9.23;;;4.70;;
22030;SDS011;11179;52.106;21.024;2023-06-14T10:56:47;10.67;;;5.20;;
22030;SDS011;11179;52.106;21.024;2023-06-14T10:59:13;12.33;;;4.33;;
22030;SDS011;11179;52.106;21.024;2023-06-14T11:04:49;8.80;;;4.63;;
22030;SDS011;11179;52.106;21.024;2023-06-14T11:10:01;10.87;;;4.57;;
22030;SDS011;11179;52.106;21.024;2023-06-14T11:12:35;11.60;;;4.17;;
22030;SDS011;11179;52.106;21.024;2023-06-14T11:15:01;9.80;;;4.67;;
22030;SDS011;11179;52.106;21.024;2023-06-14T11:17:27;9.70;;;4.30;;
22030;SDS011;11179;52.106;21.024;2023-06-14T11:20:10;15.43;;;5.20;;
22030;SDS011;11179;52.106;21.024;2023-06-14T11:22:44;8.20;;;4.67;;
22030;SDS011;11179;52.106;21.024;2023-06-14T11:25:13;10.30;;;5.53;;
22030;SDS011;11179;52.106;21.024;2023-06-14T11:27:41;11.63;;;5.30;;
22030;SDS011;11179;52.106;21.024;2023-06-14T11:30:07;9.97;;;5.10;;
22030;SDS011;11179;52.106;21.024;2023-06-14T11:32:34;14.43;;;5.50;;
22030;SDS011;11179;52.106;21.024;2023-06-14T11:35:01;12.37;;;4.90;;
22030;SDS011;11179;52.106;21.024;2023-06-14T11:37:27;8.00;;;4.67;;
22030;SDS011;11179;52.106;21.024;2023-06-14T11:39:58;9.70;;;5.00;;
22030;SDS011;11179;52.106;21.024;2023-06-14T11:42:24;11.13;;;5.30;;
22030;SDS011;11179;52.106;21.024;2023-06-14T11:44:51;10.03;;;5.97;;
22030;SDS011;11179;52.106;21.024;2023-06-14T11:47:18;14.33;;;5.53;;
22030;SDS011;11179;52.106;21.024;2023-06-14T11:49:43;9.33;;;5.57;;
22030;SDS011;11179;52.106;21.024;2023-06-14T11:52:08;7.60;;;4.67;;
22030;SDS011;11179;52.106;21.024;2023-06-14T11:54:34;13.13;;;5.03;;
22030;SDS011;11179;52.106;21.024;2023-06-14T11:57:03;16.10;;;5.07;;
22030;SDS011;11179;52.106;21.024;2023-06-14T11:59:29;9.60;;;4.20;;
22030;SDS011;11179;52.106;21.024;2023-06-14T12:01:56;7.83;;;3.87;;
22030;SDS011;11179;52.106;21.024;2023-06-14T12:04:26;9.03;;;4.70;;
22030;SDS011;11179;52.106;21.024;2023-06-14T12:06:52;8.47;;;3.90;;
22030;SDS011;11179;52.106;21.024;2023-06-14T12:09:18;10.57;;;4.00;;
22030;SDS011;11179;52.106;21.024;2023-06-14T12:11:44;12.90;;;4.70;;
22030;SDS011;11179;52.106;21.024;2023-06-14T12:14:10;10.70;;;3.83;;
22030;SDS011;11179;52.106;21.024;2023-06-14T12:16:43;9.57;;;3.87;;
22030;SDS011;11179;52.106;21.024;2023-06-14T12:19:09;12.90;;;4.30;;
22030;SDS011;11179;52.106;21.024;2023-06-14T12:21:38;9.80;;;4.27;;
22030;SDS011;11179;52.106;21.024;2023-06-14T12:24:05;7.97;;;3.90;;
22030;SDS011;11179;52.106;21.024;2023-06-14T12:26:32;7.13;;;3.73;;
22030;SDS011;11179;52.106;21.024;2023-06-14T12:28:57;7.07;;;3.57;;
22030;SDS011;11179;52.106;21.024;2023-06-14T12:31:23;7.53;;;3.53;;
22030;SDS011;11179;52.106;21.024;2023-06-14T12:33:49;7.80;;;3.40;;
22030;SDS011;11179;52.106;21.024;2023-06-14T12:36:15;8.73;;;3.40;;
22030;SDS011;11179;52.106;21.024;2023-06-14T12:38:42;6.93;;;3.10;;
22030;SDS011;11179;52.106;21.024;2023-06-14T12:41:07;8.30;;;3.07;;
22030;SDS011;11179;52.106;21.024;2023-06-14T12:43:32;7.30;;;3.10;;
22030;SDS011;11179;52.106;21.024;2023-06-14T12:45:58;8.20;;;3.73;;
22030;SDS011;11179;52.106;21.024;2023-06-14T12:48:24;6.73;;;2.93;;
22030;SDS011;11179;52.106;21.024;2023-06-14T12:50:49;6.60;;;2.33;;
22030;SDS011;11179;52.106;21.024;2023-06-14T12:53:14;7.33;;;2.60;;
22030;SDS011;11179;52.106;21.024;2023-06-14T12:55:40;9.20;;;2.77;;
22030;SDS011;11179;52.106;21.024;2023-06-14T12:58:06;7.50;;;2.90;;
22030;SDS011;11179;52.106;21.024;2023-06-14T13:00:31;7.10;;;2.70;;
22030;SDS011;11179;52.106;21.024;2023-06-14T13:02:57;11.30;;;2.67;;
22030;SDS011;11179;52.106;21.024;2023-06-14T13:05:23;7.63;;;3.10;;
22030;SDS011;11179;52.106;21.024;2023-06-14T13:07:49;5.43;;;2.50;;
22030;SDS011;11179;52.106;21.024;2023-06-14T13:10:14;12.70;;;2.73;;
22030;SDS011;11179;52.106;21.024;2023-06-14T13:12:39;9.33;;;3.00;;
22030;SDS011;11179;52.106;21.024;2023-06-14T13:15:05;8.80;;;2.40;;
22030;SDS011;11179;52.106;21.024;2023-06-14T13:17:32;6.60;;;2.50;;
22030;SDS011;11179;52.106;21.024;2023-06-14T13:19:58;10.33;;;2.67;;
22030;SDS011;11179;52.106;21.024;2023-06-14T13:22:23;9.73;;;2.40;;
22030;SDS011;11179;52.106;21.024;2023-06-14T13:24:48;5.90;;;2.40;;
22030;SDS011;11179;52.106;21.024;2023-06-14T13:27:14;6.97;;;3.00;;
22030;SDS011;11179;52.106;21.024;2023-06-14T13:29:40;6.50;;;2.70;;
22030;SDS011;11179;52.106;21.024;2023-06-14T13:32:05;8.17;;;3.30;;
22030;SDS011;11179;52.106;21.024;2023-06-14T13:34:31;6.53;;;3.00;;
22030;SDS011;11179;52.106;21.024;2023-06-14T13:36:56;7.10;;;2.93;;
22030;SDS011;11179;52.106;21.024;2023-06-14T13:39:23;7.27;;;2.30;;
22030;SDS011;11179;52.106;21.024;2023-06-14T13:41:49;6.77;;;2.67;;
22030;SDS011;11179;52.106;21.024;2023-06-14T13:44:14;8.77;;;3.23;;
22030;SDS011;11179;52.106;21.024;2023-06-14T13:46:43;6.30;;;2.47;;
22030;SDS011;11179;52.106;21.024;2023-06-14T13:49:09;7.97;;;2.67;;
22030;SDS011;11179;52.106;21.024;2023-06-14T13:51:35;9.13;;;2.40;;
22030;SDS011;11179;52.106;21.024;2023-06-14T13:54:00;6.83;;;2.77;;
22030;SDS011;11179;52.106;21.024;2023-06-14T13:56:26;7.20;;;2.80;;
22030;SDS011;11179;52.106;21.024;2023-06-14T13:58:51;7.43;;;2.57;;
22030;SDS011;11179;52.106;21.024;2023-06-14T14:01:17;8.20;;;3.27;;
22030;SDS011;11179;52.106;21.024;2023-06-14T14:03:44;11.60;;;2.50;;
22030;SDS011;11179;52.106;21.024;2023-06-14T14:06:11;9.97;;;2.50;;
22030;SDS011;11179;52.106;21.024;2023-06-14T14:08:36;7.23;;;2.73;;
22030;SDS011;11179;52.106;21.024;2023-06-14T14:11:01;6.30;;;3.00;;
22030;SDS011;11179;52.106;21.024;2023-06-14T14:13:27;10.90;;;2.77;;
22030;SDS011;11179;52.106;21.024;2023-06-14T14:15:52;7.03;;;2.53;;
22030;SDS011;11179;52.106;21.024;2023-06-14T14:18:18;12.97;;;3.23;;
22030;SDS011;11179;52.106;21.024;2023-06-14T14:20:45;12.53;;;2.70;;
22030;SDS011;11179;52.106;21.024;2023-06-14T14:23:10;10.43;;;2.80;;
22030;SDS011;11179;52.106;21.024;2023-06-14T14:25:36;6.90;;;2.30;;
22030;SDS011;11179;52.106;21.024;2023-06-14T14:28:01;7.83;;;2.50;;
22030;SDS011;11179;52.106;21.024;2023-06-14T14:30:26;5.50;;;2.17;;
22030;SDS011;11179;52.106;21.024;2023-06-14T14:32:53;10.67;;;2.70;;
22030;SDS011;11179;52.106;21.024;2023-06-14T14:35:18;11.20;;;2.63;;
22030;SDS011;11179;52.106;21.024;2023-06-14T14:37:44;6.90;;;3.10;;
22030;SDS011;11179;52.106;21.024;2023-06-14T14:40:09;7.00;;;3.10;;